LFBD/BOD METAR and TAF weather

Enter ICAO airport designator
Station Type Date Time Source
LFBD METAR 2020/09/28 08:00 UTC NOAA

LFBD 280800Z AUTO 31007KT 9999 FEW030 14/10 Q1019 NOSIG


Station Type Date Time Source
LFBD Decoded METAR 2020/09/28 08:00 UTC NOAA

Bordeaux / Merignac, France (LFBD) 44-50N 000-42W 61M
Sep 28, 2020 - 04:00 AM EDT / 2020.09.28 0800 UTC
Wind: from the NW (310 degrees) at 8 MPH (7 KT):0
Visibility: greater than 7 mile(s):0
Sky conditions: mostly clear
Temperature: 57 F (14 C)
Dew Point: 50 F (10 C)
Relative Humidity: 76%
Pressure (altimeter): 30.09 in. Hg (1019 hPa)
ob: LFBD 280800Z AUTO 31007KT 9999 FEW030 14/10 Q1019 NOSIG
cycle: 8

Station Type Date Time Source
LFBD TAF 2020/09/28 06:21 UTC NOAA

TAF TAF LFBD 280500Z 2806/2912 29007KT 9999 BKN035 TX18/2814Z TN11/2906Z
TEMPO 2814/2818 CAVOK

Example: see airport list